Time;durP1;ratioP1;P1;durP2;ratioP2;P2;SDS_P1;SDS_P2;PMS_P1;PMS_P2;Temp;Humidity;BMP_temperature;BMP_pressure;BME280_temperature;BME280_humidity;BME280_pressure;Samples;Min_cycle;Max_cycle;Signal;HPM_P1;HPM_P2
2022/10/28 00:01:06;;;;;;;17.90;4.93;;;;;;;16.26;53.20;101998.75;7390797;19;20009;-62
2022/10/28 00:03:32;;;;;;;9.27;3.70;;;;;;;16.25;53.22;101995.19;7391358;19;20017;-62
2022/10/28 00:06:03;;;;;;;11.60;4.25;;;;;;;16.16;53.48;101997.28;7391012;19;20013;-63
2022/10/28 00:08:28;;;;;;;10.60;3.83;;;;;;;16.12;53.51;101995.56;7387794;19;20062;-63
2022/10/28 00:11:20;;;;;;;11.98;3.85;;;;;;;16.14;53.59;101999.59;7391158;19;20008;-63
2022/10/28 00:13:46;;;;;;;12.38;4.45;;;;;;;16.20;53.31;102005.66;7390939;19;20005;-63
2022/10/28 00:16:16;;;;;;;10.80;4.03;;;;;;;16.20;53.57;102009.22;7389121;19;20038;-63
2022/10/28 00:18:42;;;;;;;10.35;4.28;;;;;;;16.26;53.32;101999.53;7387305;19;19995;-63
2022/10/28 00:21:20;;;;;;;8.73;3.60;;;;;;;16.19;53.35;102004.06;7390043;19;20011;-63
2022/10/28 00:23:46;;;;;;;10.77;3.90;;;;;;;16.05;54.01;102004.47;7391404;19;20351;-63
2022/10/28 00:26:14;;;;;;;10.48;4.07;;;;;;;16.05;53.64;101993.44;7389769;19;20009;-63
2022/10/28 00:28:42;;;;;;;9.73;4.03;;;;;;;16.07;53.64;101993.91;7387099;19;20026;-62
2022/10/28 00:31:09;;;;;;;13.88;4.75;;;;;;;16.15;53.38;102001.22;7389051;19;20014;-63
2022/10/28 00:33:34;;;;;;;16.08;4.40;;;;;;;16.28;53.11;101997.25;7390281;19;19998;-62
2022/10/28 00:36:28;;;;;;;14.18;4.82;;;;;;;16.36;53.19;101989.16;7390658;19;19995;-62
2022/10/28 00:38:55;;;;;;;11.57;4.57;;;;;;;16.38;52.90;101986.84;7387260;19;20003;-62
2022/10/28 00:41:30;;;;;;;11.52;4.00;;;;;;;16.39;52.90;101974.69;7388743;19;20002;-62
2022/10/28 00:44:02;;;;;;;14.45;4.97;;;;;;;16.43;53.01;101986.59;7391072;19;20012;-62
2022/10/28 00:46:41;;;;;;;10.77;4.60;;;;;;;16.49;52.70;101992.69;7389429;19;20622;-63
2022/10/28 00:49:23;;;;;;;11.05;4.22;;;;;;;16.53;52.59;101988.84;7387457;19;20010;-63
2022/10/28 00:51:55;;;;;;;16.30;4.57;;;;;;;16.56;52.80;101988.16;7390443;19;20010;-63
2022/10/28 00:54:22;;;;;;;11.73;4.78;;;;;;;16.57;52.75;101986.22;7391294;19;19999;-63
2022/10/28 00:56:52;;;;;;;10.43;4.63;;;;;;;16.58;52.62;101987.81;7390777;19;20003;-63
2022/10/28 00:59:23;;;;;;;12.93;4.22;;;;;;;16.57;52.79;101976.00;7387128;19;20014;-63
2022/10/28 01:01:49;;;;;;;12.27;4.28;;;;;;;16.65;52.51;101976.94;7388660;19;20011;-63
2022/10/28 01:04:15;;;;;;;11.45;4.10;;;;;;;16.69;52.27;101974.31;7388500;19;20014;-62
2022/10/28 01:06:41;;;;;;;13.57;4.97;;;;;;;;;;7389922;19;20458;-62
2022/10/28 01:09:06;;;;;;;15.90;5.22;;;;;;;16.65;52.28;101964.00;7387486;19;20001;-62
2022/10/28 01:11:41;;;;;;;10.15;4.97;;;;;;;16.62;52.59;101963.91;7389828;19;20495;-62
2022/10/28 01:14:40;;;;;;;15.07;4.95;;;;;;;16.60;52.64;101967.00;7390145;19;20003;-63
2022/10/28 01:17:11;;;;;;;10.90;4.10;;;;;;;16.55;52.92;101967.28;7389919;19;20002;-62
2022/10/28 01:20:05;;;;;;;12.18;4.97;;;;;;;16.59;52.76;101959.09;7387779;19;20010;-62
2022/10/28 01:23:00;;;;;;;12.52;4.15;;;;;;;16.58;52.86;101952.78;7387980;19;20026;-62
2022/10/28 01:26:02;;;;;;;13.70;4.45;;;;;;;16.58;52.93;101963.78;7388960;19;20009;-63
2022/10/28 01:28:59;;;;;;;10.75;4.32;;;;;;;16.52;53.09;101954.22;7387101;19;20054;-62
2022/10/28 01:31:28;;;;;;;12.88;4.47;;;;;;;16.46;53.18;101950.06;7390017;19;20003;-62
2022/10/28 01:34:12;;;;;;;12.27;4.28;;;;;;;16.38;53.19;101937.25;7389218;19;19998;-62
2022/10/28 01:36:54;;;;;;;12.48;4.72;;;;;;;16.22;53.66;101929.78;7389626;19;20092;-63
2022/10/28 01:39:28;;;;;;;11.32;4.53;;;;;;;16.02;53.92;101931.59;7388607;19;20511;-62
2022/10/28 01:42:10;;;;;;;13.70;4.28;;;;;;;15.95;54.04;101931.41;7393719;19;20015;-62
2022/10/28 01:44:48;;;;;;;15.65;4.40;;;;;;;15.94;54.31;101929.81;7395904;19;19998;-63
2022/10/28 01:47:34;;;;;;;12.20;4.20;;;;;;;15.89;54.30;101932.81;7395400;19;19994;-63
2022/10/28 01:50:19;;;;;;;11.32;4.32;;;;;;;15.77;54.40;101930.91;7393034;19;20471;-63
2022/10/28 01:52:48;;;;;;;11.25;4.22;;;;;;;15.80;54.09;101941.22;7395721;19;20007;-63
2022/10/28 01:55:19;;;;;;;14.23;4.50;;;;;;;15.62;54.74;101934.38;7397631;19;19991;-62
2022/10/28 01:57:47;;;;;;;11.70;4.47;;;;;;;15.66;54.57;101946.31;7395158;19;19995;-63
2022/10/28 02:00:13;;;;;;;12.38;4.32;;;;;;;15.73;54.21;101941.81;7393979;19;20000;-62
2022/10/28 02:02:41;;;;;;;9.82;4.10;;;;;;;15.68;54.06;101944.81;7395138;19;19995;-63
2022/10/28 02:05:44;;;;;;;14.38;4.47;;;;;;;15.65;54.23;101944.72;7396887;19;20002;-63
2022/10/28 02:08:49;;;;;;;9.38;4.60;;;;;;;15.65;54.04;101934.50;7390376;19;20699;-63
2022/10/28 02:11:20;;;;;;;14.73;6.00;;;;;;;15.47;54.50;101933.94;7394993;19;20029;-63
2022/10/28 02:13:46;;;;;;;10.98;4.28;;;;;;;15.52;54.57;101935.66;7395187;19;19994;-63
2022/10/28 02:16:42;;;;;;;9.52;4.07;;;;;;;15.33;55.03;101945.34;7395303;19;19991;-63
2022/10/28 02:19:26;;;;;;;13.75;5.20;;;;;;;15.33;54.91;101928.00;7392440;19;20001;-63
2022/10/28 02:22:00;;;;;;;15.30;4.18;;;;;;;15.38;54.63;101919.53;7392833;19;20010;-63
2022/10/28 02:24:46;;;;;;;12.45;4.95;;;;;;;15.28;54.43;101912.56;7394935;19;20483;-63
2022/10/28 02:27:21;;;;;;;14.65;4.63;;;;;;;15.18;54.60;101908.34;7393651;19;20007;-63
2022/10/28 02:29:58;;;;;;;9.27;4.05;;;;;;;15.24;54.72;101905.34;7394229;19;19995;-63
2022/10/28 02:32:27;;;;;;;14.40;5.57;;;;;;;15.15;54.51;101903.53;7395193;19;20002;-64
2022/10/28 02:34:56;;;;;;;12.50;5.70;;;;;;;15.01;55.13;101902.28;7394428;19;20038;-63
2022/10/28 02:37:30;;;;;;;19.20;5.75;;;;;;;15.22;54.46;101897.44;7394558;19;20117;-63
2022/10/28 02:40:08;;;;;;;13.65;5.45;;;;;;;15.33;54.10;101893.06;7391864;19;20006;-63
2022/10/28 02:42:39;;;;;;;13.82;5.55;;;;;;;15.25;54.20;101882.22;7393059;19;20021;-63
2022/10/28 02:45:10;;;;;;;13.10;5.05;;;;;;;15.13;54.74;101885.75;7394366;19;20027;-63
2022/10/28 02:47:39;;;;;;;13.73;5.50;;;;;;;15.10;54.81;101887.28;7394412;19;20003;-63
2022/10/28 02:50:11;;;;;;;13.27;5.13;;;;;;;15.07;54.96;101885.22;7390240;19;20006;-63
2022/10/28 02:52:41;;;;;;;11.48;5.68;;;;;;;15.21;54.47;101884.03;7393515;19;20026;-63
2022/10/28 02:55:07;;;;;;;12.05;5.28;;;;;;;15.28;54.60;101887.00;7391814;19;20003;-63
2022/10/28 02:57:36;;;;;;;13.02;5.90;;;;;;;15.28;54.40;101881.50;7393649;19;20006;-63
2022/10/28 03:00:09;;;;;;;14.38;5.40;;;;;;;15.35;54.58;101881.72;7391629;19;20108;-63
2022/10/28 03:02:35;;;;;;;12.47;5.00;;;;;;;15.36;54.43;101881.38;7394074;19;20004;-63
2022/10/28 03:05:03;;;;;;;13.43;5.57;;;;;;;15.48;54.18;101872.28;7393558;19;20037;-63
2022/10/28 03:07:28;;;;;;;13.68;5.10;;;;;;;15.47;54.21;101870.66;7391810;19;19999;-63
2022/10/28 03:09:54;;;;;;;10.98;4.38;;;;;;;15.51;54.49;101859.75;7389739;19;19995;-63
2022/10/28 03:12:19;;;;;;;9.75;4.47;;;;;;;15.53;54.29;101860.22;7393814;19;20005;-62
2022/10/28 03:14:45;;;;;;;10.88;4.78;;;;;;;15.52;54.37;101855.88;7391827;19;20015;-62
2022/10/28 03:17:11;;;;;;;11.93;5.10;;;;;;;15.55;54.63;101857.94;7392721;19;20046;-67
2022/10/28 03:19:36;;;;;;;13.77;5.30;;;;;;;15.62;54.16;101863.63;7391827;19;20003;-63
2022/10/28 03:22:02;;;;;;;11.73;4.65;;;;;;;15.62;54.46;101862.84;7391183;19;20459;-63
2022/10/28 03:24:28;;;;;;;11.30;4.00;;;;;;;15.63;54.18;101858.94;7391714;19;20007;-62
2022/10/28 03:26:54;;;;;;;11.95;4.50;;;;;;;15.66;54.21;101855.50;7393380;19;20013;-63
2022/10/28 03:29:20;;;;;;;11.90;4.70;;;;;;;15.73;54.31;101852.94;7389724;19;20070;-63
2022/10/28 03:31:45;;;;;;;13.05;4.47;;;;;;;15.72;54.16;101863.16;7391265;19;20006;-63
2022/10/28 03:34:11;;;;;;;12.60;5.00;;;;;;;15.73;54.45;101863.94;7392480;19;20002;-63
2022/10/28 03:36:37;;;;;;;9.45;4.85;;;;;;;15.70;54.50;101864.66;7392386;19;20007;-63
2022/10/28 03:39:03;;;;;;;12.00;4.68;;;;;;;15.70;54.46;101859.94;7389465;19;20471;-63
2022/10/28 03:41:28;;;;;;;13.05;5.10;;;;;;;15.67;54.63;101865.34;7389662;19;20026;-63
2022/10/28 03:43:54;;;;;;;10.55;4.47;;;;;;;15.68;54.60;101870.50;7390329;19;20006;-63
2022/10/28 03:46:19;;;;;;;10.55;4.32;;;;;;;15.72;54.51;101863.16;7392630;19;20006;-63
2022/10/28 03:48:45;;;;;;;15.85;4.70;;;;;;;15.68;54.67;101858.69;7387141;19;19995;-63
2022/10/28 03:51:11;;;;;;;11.77;4.60;;;;;;;15.66;54.77;101859.03;7391954;19;20010;-63
2022/10/28 03:53:36;;;;;;;11.35;4.97;;;;;;;15.62;54.70;101847.13;7392183;19;20020;-63
2022/10/28 03:56:02;;;;;;;10.30;4.88;;;;;;;15.58;54.92;101856.41;7391298;19;20341;-62
2022/10/28 03:58:28;;;;;;;13.45;4.85;;;;;;;15.50;55.10;101850.72;7390705;19;19998;-63
2022/10/28 04:00:54;;;;;;;11.90;5.13;;;;;;;15.48;55.30;101853.03;7392393;19;19999;-63
2022/10/28 04:03:21;;;;;;;11.30;4.55;;;;;;;15.44;55.15;101841.09;7392621;19;20036;-63
2022/10/28 04:05:47;;;;;;;11.55;5.13;;;;;;;15.42;55.14;101846.16;7392352;19;20017;-63
2022/10/28 04:08:14;;;;;;;10.77;4.80;;;;;;;15.42;55.09;101851.66;7389826;19;20006;-64
2022/10/28 04:10:39;;;;;;;10.98;4.18;;;;;;;15.32;55.49;101841.16;7393020;19;20106;-63
2022/10/28 04:13:06;;;;;;;14.77;4.80;;;;;;;15.33;55.19;101842.75;7394286;19;20010;-63
2022/10/28 04:15:32;;;;;;;11.27;5.00;;;;;;;15.37;55.16;101840.91;7394474;19;20014;-64
2022/10/28 04:17:58;;;;;;;10.57;4.88;;;;;;;15.26;55.09;101835.09;7388559;19;20002;-63
2022/10/28 04:20:24;;;;;;;15.20;5.30;;;;;;;15.22;55.03;101839.69;7388294;19;20003;-63
2022/10/28 04:22:50;;;;;;;14.88;5.45;;;;;;;15.15;55.30;101837.53;7389836;19;20331;-63
2022/10/28 04:25:16;;;;;;;13.45;4.60;;;;;;;15.15;55.31;101845.78;7389007;19;19999;-64
2022/10/28 04:27:44;;;;;;;12.57;4.80;;;;;;;15.05;55.38;101846.28;7391444;19;20007;-64
2022/10/28 04:30:14;;;;;;;13.85;4.97;;;;;;;15.14;55.21;101841.41;7388454;19;20007;-64
2022/10/28 04:32:40;;;;;;;11.95;5.15;;;;;;;15.12;55.18;101846.47;7392005;19;20006;-64
2022/10/28 04:35:07;;;;;;;14.73;6.05;;;;;;;15.15;54.91;101836.75;7391027;19;20015;-64
2022/10/28 04:37:33;;;;;;;14.13;5.35;;;;;;;15.13;55.14;101842.59;7391574;19;20025;-64
2022/10/28 04:39:58;;;;;;;15.88;6.20;;;;;;;15.13;55.38;101837.09;7388450;19;20002;-64
2022/10/28 04:42:24;;;;;;;12.88;6.22;;;;;;;15.13;55.01;101837.09;7389240;19;20013;-65
2022/10/28 04:44:50;;;;;;;15.40;5.53;;;;;;;15.13;55.02;101839.84;7391618;19;20006;-64
2022/10/28 04:47:16;;;;;;;13.60;5.40;;;;;;;15.10;55.09;101843.28;7390425;19;19999;-64
2022/10/28 04:49:42;;;;;;;13.43;5.00;;;;;;;15.09;55.37;101830.66;7389979;19;19998;-64
2022/10/28 04:52:08;;;;;;;15.52;5.65;;;;;;;15.18;55.00;101834.09;7388602;19;20076;-64
2022/10/28 04:54:34;;;;;;;17.52;6.22;;;;;;;15.22;54.98;101830.66;7389192;19;20070;-64
2022/10/28 04:56:59;;;;;;;12.45;6.00;;;;;;;15.23;54.86;101832.22;7389340;19;20605;-64
2022/10/28 04:59:25;;;;;;;12.60;5.60;;;;;;;15.24;55.01;101828.34;7385491;19;19999;-64
2022/10/28 05:01:51;;;;;;;15.77;6.35;;;;;;;15.28;54.72;101829.22;7389245;19;20090;-64
2022/10/28 05:04:19;;;;;;;15.57;6.57;;;;;;;15.39;54.67;101818.56;7387920;19;20012;-64
2022/10/28 05:06:45;;;;;;;19.10;6.13;;;;;;;15.48;54.71;101814.50;7394187;19;20030;-64
2022/10/28 05:09:11;;;;;;;14.00;5.93;;;;;;;15.49;54.55;101815.28;7388056;19;20007;-64
2022/10/28 05:11:36;;;;;;;15.43;6.25;;;;;;;15.52;54.51;101812.63;7387489;19;20582;-64
2022/10/28 05:14:02;;;;;;;16.05;6.45;;;;;;;15.48;54.46;101811.75;7394333;19;19994;-64
2022/10/28 05:16:28;;;;;;;14.90;5.80;;;;;;;15.46;54.48;101816.00;7397567;19;20003;-64
2022/10/28 05:18:53;;;;;;;16.77;5.95;;;;;;;15.53;54.57;101814.25;7391634;19;20006;-63
2022/10/28 05:21:19;;;;;;;15.32;6.03;;;;;;;15.57;54.38;101810.81;7395246;19;20007;-64
2022/10/28 05:23:46;;;;;;;14.77;6.93;;;;;;;15.54;54.59;101806.78;7396938;19;20002;-64
2022/10/28 05:26:12;;;;;;;14.32;5.43;;;;;;;15.58;54.52;101810.47;7397343;19;20003;-64
2022/10/28 05:28:38;;;;;;;16.52;5.65;;;;;;;15.65;54.33;101801.63;7394641;19;20031;-64
2022/10/28 05:31:04;;;;;;;17.20;5.32;;;;;;;15.70;54.12;101804.13;7395432;19;19999;-64
2022/10/28 05:33:29;;;;;;;14.88;5.40;;;;;;;15.55;54.48;101798.19;7396612;19;19999;-64
2022/10/28 05:35:57;;;;;;;11.68;5.50;;;;;;;15.55;54.68;101787.19;7397205;19;20478;-64
2022/10/28 05:38:23;;;;;;;17.25;5.90;;;;;;;15.52;54.78;101787.88;7393837;19;20026;-64
2022/10/28 05:40:49;;;;;;;13.88;5.90;;;;;;;15.53;54.46;101784.00;7395872;19;20031;-64
2022/10/28 05:43:14;;;;;;;14.30;5.65;;;;;;;15.49;54.75;101793.28;7397535;19;19999;-64
2022/10/28 05:45:40;;;;;;;15.07;5.35;;;;;;;15.48;54.71;101800.75;7395033;19;20033;-64
2022/10/28 05:48:06;;;;;;;14.23;5.65;;;;;;;15.55;54.53;101795.44;7394810;19;20026;-64
2022/10/28 05:50:31;;;;;;;14.07;5.20;;;;;;;15.57;54.61;101799.81;7396081;19;19994;-64
2022/10/28 05:52:57;;;;;;;16.05;5.22;;;;;;;15.45;54.79;101793.19;7396718;19;19994;-64
2022/10/28 05:55:27;;;;;;;13.20;5.00;;;;;;;15.47;54.79;101795.59;7393510;19;20008;-64
2022/10/28 05:57:53;;;;;;;13.18;5.45;;;;;;;15.38;54.99;101789.44;7394357;19;19999;-64
2022/10/28 06:00:20;;;;;;;12.20;5.30;;;;;;;15.44;54.86;101796.28;7393461;19;20005;-64
2022/10/28 06:02:46;;;;;;;12.23;5.47;;;;;;;15.46;54.77;101794.00;7396779;19;19991;-63
2022/10/28 06:05:12;;;;;;;17.67;5.80;;;;;;;15.38;54.84;101793.00;7395476;19;20340;-64
2022/10/28 06:07:39;;;;;;;16.50;5.38;;;;;;;15.36;54.83;101796.09;7394408;19;20019;-64
2022/10/28 06:10:06;;;;;;;15.93;5.38;;;;;;;15.37;54.83;101791.41;7391893;19;20066;-64
2022/10/28 06:12:32;;;;;;;12.55;4.97;;;;;;;15.34;54.81;101797.59;7396746;19;20103;-64
2022/10/28 06:14:58;;;;;;;11.73;5.35;;;;;;;15.35;54.97;101799.19;7395428;19;20010;-63
2022/10/28 06:17:24;;;;;;;13.45;5.28;;;;;;;15.31;54.72;101809.28;7395817;19;20006;-64
2022/10/28 06:19:50;;;;;;;14.15;5.25;;;;;;;15.21;54.99;101804.28;7394709;19;20002;-64
2022/10/28 06:22:15;;;;;;;12.50;4.70;;;;;;;15.12;55.07;101801.69;7391491;19;20448;-63
2022/10/28 06:24:41;;;;;;;16.02;5.35;;;;;;;15.10;55.12;101810.28;7394619;19;20066;-64
2022/10/28 06:27:07;;;;;;;10.70;5.30;;;;;;;15.13;54.90;101808.75;7394249;19;20058;-64
2022/10/28 06:29:40;;;;;;;13.35;4.95;;;;;;;15.07;54.70;101801.94;7390691;19;20002;-63
2022/10/28 06:32:09;;;;;;;14.23;5.00;;;;;;;14.89;55.10;101809.63;7393231;19;20010;-64
2022/10/28 06:34:34;;;;;;;15.02;5.30;;;;;;;14.96;55.06;101804.34;7395364;19;20003;-64
2022/10/28 06:37:00;;;;;;;13.90;4.97;;;;;;;14.87;55.21;101807.22;7394632;19;20021;-64
2022/10/28 06:39:25;;;;;;;13.35;5.05;;;;;;;14.84;55.37;101805.19;7391731;19;20011;-64
2022/10/28 06:41:51;;;;;;;15.20;5.38;;;;;;;14.89;54.98;101809.63;7392695;19;19999;-63
2022/10/28 06:44:16;;;;;;;13.02;4.75;;;;;;;14.85;55.30;101806.78;7391148;19;20006;-64
2022/10/28 06:46:42;;;;;;;11.65;5.43;;;;;;;14.93;55.00;101807.78;7394986;19;19995;-64
2022/10/28 06:49:07;;;;;;;15.68;4.90;;;;;;;15.02;54.77;101811.22;7388409;19;20074;-64
2022/10/28 06:51:33;;;;;;;15.23;5.10;;;;;;;15.03;54.59;101812.81;7394300;19;19998;-63
2022/10/28 06:53:59;;;;;;;15.65;6.38;;;;;;;15.04;54.57;101817.16;7392464;19;20077;-63
2022/10/28 06:56:24;;;;;;;28.95;10.18;;;;;;;15.08;54.58;101820.84;7393678;19;20006;-64
2022/10/28 06:58:52;;;;;;;36.35;15.10;;;;;;;15.08;54.59;101828.25;7392060;19;19999;-64
2022/10/28 07:01:18;;;;;;;43.60;21.05;;;;;;;15.16;54.42;101819.06;7391055;19;20033;-63
2022/10/28 07:03:43;;;;;;;40.53;19.70;;;;;;;15.18;54.68;101822.31;7394576;19;20002;-63
2022/10/28 07:06:09;;;;;;;38.00;16.25;;;;;;;15.20;54.67;101813.66;7394428;19;20003;-64
2022/10/28 07:08:35;;;;;;;25.30;11.57;;;;;;;15.20;54.69;101813.66;7389390;19;20023;-64
2022/10/28 07:11:01;;;;;;;23.63;10.80;;;;;;;15.35;54.33;101821.22;7394232;19;19999;-64
2022/10/28 07:13:27;;;;;;;28.08;13.40;;;;;;;15.42;54.24;101831.63;7394507;19;20003;-64
2022/10/28 07:15:54;;;;;;;18.42;8.75;;;;;;;15.46;54.39;101825.03;7394022;19;20006;-64
2022/10/28 07:18:21;;;;;;;19.30;8.95;;;;;;;15.47;54.47;101823.91;7391308;19;20002;-64
2022/10/28 07:20:47;;;;;;;16.40;7.25;;;;;;;15.51;54.23;101830.31;7392471;19;20002;-64
2022/10/28 07:23:13;;;;;;;15.38;5.78;;;;;;;15.62;54.03;101825.09;7393842;19;20474;-64
2022/10/28 07:25:38;;;;;;;15.10;5.70;;;;;;;15.71;53.75;101813.97;7391956;19;20408;-64
2022/10/28 07:28:10;;;;;;;15.10;5.75;;;;;;;15.77;53.52;101814.53;7391758;19;20471;-64
2022/10/28 07:30:36;;;;;;;16.58;5.10;;;;;;;15.82;53.65;101823.31;7393732;19;20015;-64
2022/10/28 07:33:04;;;;;;;16.65;5.43;;;;;;;15.81;53.58;101810.69;7391500;19;20459;-64
2022/10/28 07:35:30;;;;;;;17.35;5.03;;;;;;;15.84;53.53;101823.75;7392839;19;20040;-64
2022/10/28 07:37:57;;;;;;;14.65;4.85;;;;;;;15.91;53.49;101821.19;7389310;19;20036;-64
2022/10/28 07:40:24;;;;;;;13.48;4.97;;;;;;;15.95;53.57;101820.47;7392370;19;20033;-64
2022/10/28 07:42:50;;;;;;;12.73;4.25;;;;;;;16.00;53.37;101832.03;7391117;19;19994;-64
2022/10/28 07:45:17;;;;;;;10.57;5.05;;;;;;;15.98;53.13;101830.78;7390929;19;20042;-64
2022/10/28 07:47:43;;;;;;;16.63;5.22;;;;;;;16.09;53.12;101837.38;7391306;19;19994;-64
2022/10/28 07:50:10;;;;;;;13.25;5.18;;;;;;;16.13;52.68;101826.44;7388769;19;20076;-64
2022/10/28 07:52:36;;;;;;;11.38;5.10;;;;;;;16.15;52.60;101827.69;7391137;19;20007;-64
2022/10/28 07:55:03;;;;;;;14.70;5.53;;;;;;;16.15;52.70;101833.22;7390882;19;20014;-64
2022/10/28 07:57:28;;;;;;;18.85;5.53;;;;;;;16.15;52.56;101833.22;7390840;19;20021;-64
2022/10/28 07:59:54;;;;;;;13.20;4.57;;;;;;;16.19;52.86;101831.34;7388744;19;20003;-64
2022/10/28 08:02:22;;;;;;;12.38;4.88;;;;;;;16.27;52.57;101829.56;7392250;19;19994;-64
2022/10/28 08:04:48;;;;;;;12.40;5.47;;;;;;;16.25;52.48;101824.41;7384818;19;20026;-63
2022/10/28 08:07:15;;;;;;;14.15;5.00;;;;;;;16.28;52.51;101822.88;7392131;19;20502;-63
2022/10/28 08:09:41;;;;;;;14.60;4.70;;;;;;;16.32;52.53;101833.97;7388512;19;19995;-64
2022/10/28 08:12:07;;;;;;;18.63;5.38;;;;;;;16.38;52.38;101821.53;7391691;19;20006;-63
2022/10/28 08:14:34;;;;;;;12.07;4.70;;;;;;;16.43;51.97;101826.78;7392411;19;19998;-63
2022/10/28 08:17:00;;;;;;;14.10;4.75;;;;;;;16.49;52.02;101825.41;7392508;19;20004;-63
2022/10/28 08:19:26;;;;;;;14.05;4.75;;;;;;;16.55;51.73;101821.22;7387036;19;19994;-65
2022/10/28 08:21:51;;;;;;;15.65;5.40;;;;;;;16.54;51.88;101824.34;7389247;19;20013;-65
2022/10/28 08:24:17;;;;;;;13.32;4.93;;;;;;;16.58;51.53;101814.19;7389324;19;19999;-65
2022/10/28 08:26:43;;;;;;;13.30;4.80;;;;;;;16.58;51.67;101812.22;7391480;19;20003;-64
2022/10/28 08:29:11;;;;;;;12.02;5.03;;;;;;;16.64;51.63;101808.03;7387282;19;20029;-64
2022/10/28 08:31:37;;;;;;;14.07;4.88;;;;;;;16.73;51.68;101812.53;7391063;19;20018;-65
2022/10/28 08:34:04;;;;;;;19.92;4.90;;;;;;;16.75;51.42;101808.28;7392227;19;20009;-65
2022/10/28 08:36:29;;;;;;;12.13;4.85;;;;;;;16.77;51.19;101817.00;7390666;19;20023;-64
2022/10/28 08:38:58;;;;;;;13.85;4.95;;;;;;;16.80;51.35;101815.47;7388412;19;20010;-64
2022/10/28 08:41:38;;;;;;;14.13;4.93;;;;;;;16.83;51.10;101811.97;7389908;19;20462;-64
2022/10/28 08:44:22;;;;;;;13.63;4.38;;;;;;;16.92;50.93;101823.63;7391381;19;20007;-64
2022/10/28 08:47:25;;;;;;;14.10;4.40;;;;;;;17.01;50.62;101815.94;7391381;19;20011;-64
2022/10/28 08:49:55;;;;;;;17.95;5.07;;;;;;;17.04;51.02;101810.88;7394448;19;20007;-66
2022/10/28 08:52:20;;;;;;;13.15;4.25;;;;;;;17.05;50.95;101809.69;7396624;19;20003;-65
2022/10/28 08:54:52;;;;;;;14.10;4.70;;;;;;;17.09;50.79;101810.59;7398567;19;19994;-65
2022/10/28 08:57:36;;;;;;;14.13;4.95;;;;;;;17.17;50.53;101806.81;7399790;19;20036;-65
2022/10/28 09:00:04;;;;;;;;;;;;;;;17.20;50.35;101806.06;7400025;19;20005;-65
2022/10/28 09:02:42;;;;;;;13.55;4.10;;;;;;;17.26;50.32;101812.91;7400564;19;20259;-65
2022/10/28 09:05:20;;;;;;;17.30;4.72;;;;;;;17.25;50.32;101805.78;7398202;19;20007;-65
2022/10/28 09:07:46;;;;;;;12.60;3.75;;;;;;;17.29;50.60;101809.44;7397030;19;20009;-66
2022/10/28 09:10:14;;;;;;;12.32;4.18;;;;;;;17.38;50.15;101815.53;7397298;19;20078;-66
2022/10/28 09:13:03;;;;;;;18.65;4.40;;;;;;;17.44;50.17;101818.81;7398402;19;20006;-65
2022/10/28 09:15:32;;;;;;;14.23;4.00;;;;;;;17.47;49.87;101817.28;7397071;19;20474;-65
2022/10/28 09:18:21;;;;;;;12.52;4.18;;;;;;;17.53;49.97;101804.78;7397514;19;20007;-65
2022/10/28 09:20:55;;;;;;;19.35;4.45;;;;;;;17.60;50.04;101813.19;7395958;19;19999;-65
2022/10/28 09:23:29;;;;;;;15.45;4.28;;;;;;;17.58;50.09;101812.75;7396834;19;20334;-65
2022/10/28 09:26:13;;;;;;;17.35;4.72;;;;;;;17.68;49.87;101809.41;7398796;19;20026;-65
2022/10/28 09:28:45;;;;;;;11.73;4.05;;;;;;;17.72;50.03;101807.50;7395739;19;20006;-65
2022/10/28 09:31:29;;;;;;;16.30;3.83;;;;;;;17.84;49.68;101812.06;7399656;19;19999;-65
2022/10/28 09:34:29;;;;;;;17.48;4.43;;;;;;;17.89;49.96;101803.47;7398145;19;20003;-66
2022/10/28 09:37:05;;;;;;;15.40;4.57;;;;;;;17.94;49.74;101799.63;7400110;19;20464;-66
2022/10/28 09:39:42;;;;;;;14.23;4.38;;;;;;;17.98;49.73;101800.47;7389998;19;20006;-67
2022/10/28 09:42:12;;;;;;;13.55;4.35;;;;;;;18.05;49.97;101808.06;7393011;19;20058;-67
2022/10/28 09:44:44;;;;;;;12.32;3.83;;;;;;;18.08;49.95;101810.91;7396834;19;20008;-67
2022/10/28 09:47:18;;;;;;;11.20;3.90;;;;;;;18.12;49.95;101810.97;7393674;19;20015;-67
2022/10/28 09:49:46;;;;;;;15.48;4.32;;;;;;;18.17;49.71;101801.59;7395343;19;20054;-67
2022/10/28 09:52:41;;;;;;;17.50;3.97;;;;;;;18.21;49.78;101796.94;7396775;19;20026;-66
2022/10/28 09:55:21;;;;;;;14.52;4.05;;;;;;;18.27;49.96;101800.97;7394158;19;20002;-67
2022/10/28 09:57:47;;;;;;;15.23;4.50;;;;;;;18.35;49.72;101793.59;7394005;19;20477;-67
2022/10/28 10:00:15;;;;;;;12.90;3.97;;;;;;;18.36;49.59;101792.44;7393315;19;19995;-67
2022/10/28 10:02:41;;;;;;;14.25;3.92;;;;;;;18.42;49.62;101791.75;7394790;19;20095;-66
2022/10/28 10:05:13;;;;;;;13.32;4.60;;;;;;;18.48;49.33;101784.72;7395661;19;20010;-66
2022/10/28 10:07:43;;;;;;;12.13;4.03;;;;;;;18.52;49.35;101789.50;7394949;19;20002;-67
2022/10/28 10:10:22;;;;;;;14.55;3.60;;;;;;;18.61;49.26;101790.03;7392701;19;20005;-67
2022/10/28 10:12:51;;;;;;;16.10;4.20;;;;;;;18.70;48.69;101798.06;7394967;19;20028;-67
2022/10/28 10:15:29;;;;;;;15.68;4.18;;;;;;;18.79;48.71;101791.06;7394740;19;20007;-67
2022/10/28 10:17:59;;;;;;;15.38;4.00;;;;;;;18.84;48.37;101795.53;7394059;19;20006;-65
2022/10/28 10:20:24;;;;;;;11.73;4.20;;;;;;;18.86;48.32;101782.91;7394251;19;20074;-65
2022/10/28 10:22:50;;;;;;;17.02;4.60;;;;;;;18.86;48.59;101791.19;7393364;19;20006;-65
2022/10/28 10:25:18;;;;;;;16.77;4.07;;;;;;;18.97;48.07;101782.22;7393701;19;20510;-65
2022/10/28 10:27:59;;;;;;;18.35;3.53;;;;;;;19.03;47.90;101787.06;7394715;19;20007;-65
2022/10/28 10:30:30;;;;;;;16.00;4.13;;;;;;;19.12;47.87;101789.53;7392880;19;20313;-65
2022/10/28 10:32:56;;;;;;;16.02;5.28;;;;;;;19.15;47.65;101793.53;7395156;19;19999;-65
2022/10/28 10:35:27;;;;;;;19.60;5.88;;;;;;;19.26;47.48;101788.09;7395796;19;20006;-65
2022/10/28 10:37:55;;;;;;;15.63;5.53;;;;;;;19.25;47.75;101803.94;7393606;19;20023;-65
2022/10/28 10:40:30;;;;;;;15.82;5.55;;;;;;;19.28;47.62;101791.31;7392231;19;20054;-65
2022/10/28 10:43:19;;;;;;;15.68;4.57;;;;;;;19.33;47.40;101796.50;7395705;19;20002;-66
2022/10/28 10:45:51;;;;;;;11.00;3.60;;;;;;;19.34;47.40;101782.28;7395175;19;20003;-66
2022/10/28 10:48:17;;;;;;;13.77;3.95;;;;;;;19.37;47.29;101787.09;7390170;19;20455;-66
2022/10/28 10:50:48;;;;;;;14.73;3.97;;;;;;;19.52;47.22;101784.44;7392770;19;20016;-65
2022/10/28 10:53:22;;;;;;;12.82;4.20;;;;;;;19.58;46.87;101780.19;7395006;19;20028;-65
2022/10/28 10:56:00;;;;;;;17.83;4.68;;;;;;;19.67;46.93;101785.41;7392557;19;20013;-65
2022/10/28 10:58:30;;;;;;;13.70;4.32;;;;;;;19.63;46.88;101768.00;7392351;19;20010;-65
2022/10/28 11:00:58;;;;;;;15.70;4.50;;;;;;;19.62;46.90;101783.78;7394087;19;20018;-65
2022/10/28 11:03:29;;;;;;;15.18;4.25;;;;;;;19.59;47.02;101779.81;7394258;19;20031;-65
2022/10/28 11:05:58;;;;;;;18.60;4.72;;;;;;;19.53;47.10;101774.97;7391878;19;20353;-64
2022/10/28 11:08:33;;;;;;;14.15;3.70;;;;;;;19.49;47.11;101780.47;7391284;19;19998;-64
2022/10/28 11:11:30;;;;;;;17.40;3.80;;;;;;;19.67;46.67;101774.34;7390260;19;20002;-64
2022/10/28 11:14:21;;;;;;;15.60;4.05;;;;;;;19.66;46.83;101778.28;7391793;19;20003;-64
2022/10/28 11:16:55;;;;;;;16.95;4.05;;;;;;;19.64;47.08;101780.63;7393945;19;20007;-64
2022/10/28 11:19:26;;;;;;;14.52;3.78;;;;;;;19.67;47.07;101774.34;7390761;19;20014;-65
2022/10/28 11:22:31;;;;;;;16.88;4.25;;;;;;;19.75;46.80;101773.22;7391550;19;20538;-65
2022/10/28 11:25:31;;;;;;;15.35;4.05;;;;;;;19.84;46.57;101779.28;7391492;19;20005;-65
2022/10/28 11:28:15;;;;;;;19.50;4.10;;;;;;;19.87;47.01;101761.84;7389462;19;19999;-65
2022/10/28 11:31:09;;;;;;;12.88;4.30;;;;;;;19.90;46.60;101772.19;7391648;19;19995;-65
2022/10/28 11:33:42;;;;;;;;;;;;;;;20.02;46.27;101762.78;7392399;19;20058;-65
2022/10/28 11:36:33;;;;;;;18.15;5.60;;;;;;;20.05;46.63;101756.47;7393385;19;19974;-65